CKQ8 weather

McArthur River Airport
Mcarthur River, Saskatchewan, Canada

Public forecast

Using degrees Celsius for public forecast. Weather courtesy of forecast.io.

Closest aviation weather report (METAR) to McArthur River Airport

Closest report is Key Lake Airport, 36.2 nm (67.0 km) SSW. Retrieved 2020/06/01 02:00 UTC (33 minutes ago):

CYKJ 010200Z AUTO 13005KT 9SM -RA OVC090 14/10 A2964 RMK SLP051 DENSITY ALT 2200FT

Closest aviation forecast (TAF) to McArthur River Airport

Forecast is more than 6 hours old.

Closest forecast is Key Lake Airport, 36.2 nm (67.0 km) SSW. Retrieved 2020/05/31 19:00 UTC (8 hours ago):

TAF CYKJ 311838Z 3119/3124 15012G22KT P6SM SCT090 RMK FCST BASED ON AUTO OBS NXT FCST WILL BE ISSUED AT 010945Z